createdAt,value
2018-05-10T00:01:47.667Z,0.00
2018-05-10T00:02:47.589Z,0.00
2018-05-10T00:04:39.349Z,0.00
2018-05-10T00:05:39.288Z,0.00
2018-05-10T00:07:31.066Z,0.00
2018-05-10T00:08:30.996Z,0.00
2018-05-10T00:10:22.759Z,3.84
2018-05-10T00:11:22.701Z,0.29
2018-05-10T00:13:14.460Z,7.29
2018-05-10T00:14:14.396Z,3.64
2018-05-10T00:16:06.183Z,6.62
2018-05-10T00:17:06.110Z,4.80
2018-05-10T00:18:57.906Z,5.95
2018-05-10T00:19:57.838Z,9.50
2018-05-10T00:21:49.656Z,1.73
2018-05-10T00:22:49.558Z,0.00
2018-05-10T00:24:41.334Z,3.64
2018-05-10T00:25:41.270Z,1.43
2018-05-10T00:27:33.048Z,1.63
2018-05-10T00:28:32.985Z,6.81
2018-05-10T00:30:24.729Z,6.33
2018-05-10T00:31:24.665Z,3.26
2018-05-10T00:33:16.428Z,2.78
2018-05-10T00:34:16.363Z,3.45
2018-05-10T00:36:08.151Z,4.03
2018-05-10T00:37:08.078Z,1.34
2018-05-10T00:38:59.836Z,0.00
2018-05-10T00:39:59.775Z,0.00
2018-05-10T00:41:51.552Z,0.57
2018-05-10T00:42:51.476Z,0.00
2018-05-10T00:44:43.250Z,0.00
2018-05-10T00:45:43.182Z,0.00
2018-05-10T00:47:34.962Z,0.00
2018-05-10T00:48:34.898Z,0.00
2018-05-10T00:50:26.663Z,0.00
2018-05-10T00:51:26.608Z,0.19
2018-05-10T00:53:18.364Z,0.00
2018-05-10T00:54:18.295Z,0.00
2018-05-10T00:56:10.077Z,0.00
2018-05-10T00:57:10.016Z,1.25
2018-05-10T00:59:01.799Z,0.00
2018-05-10T01:00:01.730Z,1.63
2018-05-10T01:01:53.508Z,0.00
2018-05-10T01:02:53.430Z,0.00
2018-05-10T01:04:45.243Z,2.20
2018-05-10T01:05:45.131Z,0.00
2018-05-10T01:07:36.909Z,0.00
2018-05-10T01:08:36.842Z,0.00
2018-05-10T01:10:28.605Z,1.25
2018-05-10T01:11:28.571Z,2.69
2018-05-10T01:13:20.329Z,0.00
2018-05-10T01:14:20.258Z,0.48
2018-05-10T01:16:12.008Z,2.01
2018-05-10T01:17:11.951Z,1.72
2018-05-10T01:19:03.744Z,0.19
2018-05-10T01:20:03.666Z,7.19
2018-05-10T01:21:55.431Z,0.00
2018-05-10T01:22:55.372Z,0.00
2018-05-10T01:24:47.142Z,3.64
2018-05-10T01:25:47.076Z,0.00
2018-05-10T01:27:38.847Z,2.69
2018-05-10T01:28:38.779Z,1.34
2018-05-10T01:30:30.543Z,5.85
2018-05-10T01:31:30.487Z,9.30
2018-05-10T01:33:22.245Z,8.92
2018-05-10T01:34:22.180Z,6.52
2018-05-10T01:36:13.934Z,4.60
2018-05-10T01:37:13.879Z,5.18
2018-05-10T01:39:05.657Z,6.62
2018-05-10T01:40:05.583Z,4.90
2018-05-10T01:41:57.359Z,10.65
2018-05-10T01:42:57.285Z,9.69
2018-05-10T01:44:49.059Z,9.98
2018-05-10T01:45:48.987Z,14.20
2018-05-10T01:47:40.772Z,13.24
2018-05-10T01:48:40.710Z,13.34
2018-05-10T01:50:32.437Z,11.61
2018-05-10T01:51:32.385Z,14.69
2018-05-10T01:53:24.147Z,11.81
2018-05-10T01:54:24.080Z,17.57
2018-05-10T01:56:15.837Z,14.02
2018-05-10T01:57:15.770Z,18.53
2018-05-10T01:59:07.571Z,17.19
2018-05-10T02:00:07.467Z,21.70
2018-05-10T02:01:59.270Z,21.61
2018-05-10T02:02:59.169Z,20.64
2018-05-10T02:04:50.953Z,17.09
2018-05-10T02:05:50.869Z,19.11
2018-05-10T02:07:42.633Z,18.73
2018-05-10T02:08:42.568Z,16.61
2018-05-10T02:10:34.333Z,15.94
2018-05-10T02:11:34.263Z,16.99
2018-05-10T02:13:26.092Z,16.32
2018-05-10T02:14:26.025Z,20.17
2018-05-10T02:16:17.782Z,23.33
2018-05-10T02:17:17.713Z,19.11
2018-05-10T02:19:09.484Z,21.61
2018-05-10T02:20:09.413Z,24.68
2018-05-10T02:22:01.197Z,21.88
2018-05-10T02:23:01.139Z,22.08
2018-05-10T02:24:52.913Z,21.88
2018-05-10T02:25:52.845Z,26.30
2018-05-10T02:27:44.603Z,22.85
2018-05-10T02:28:44.567Z,23.52
2018-05-10T02:30:36.320Z,27.17
2018-05-10T02:31:36.245Z,27.37
2018-05-10T02:33:28.044Z,21.89
2018-05-10T02:34:27.954Z,20.55
2018-05-10T02:36:19.724Z,24.87
2018-05-10T02:37:19.659Z,26.40
2018-05-10T02:39:11.470Z,17.86
2018-05-10T02:40:11.370Z,14.21
2018-05-10T02:42:03.151Z,20.26
2018-05-10T02:43:03.070Z,22.08
2018-05-10T02:44:54.918Z,3.45
2018-05-10T02:45:54.776Z,0.00
2018-05-10T02:47:46.539Z,0.00
2018-05-10T02:48:46.477Z,0.00
2018-05-10T02:50:38.273Z,0.00
2018-05-10T02:51:38.245Z,0.00
2018-05-10T02:53:29.947Z,0.00
2018-05-10T02:54:29.880Z,0.00
2018-05-10T02:56:21.670Z,0.00
2018-05-10T02:57:21.590Z,0.00
2018-05-10T02:59:13.373Z,0.00
2018-05-10T03:00:13.301Z,0.00
2018-05-10T03:02:05.074Z,0.00
2018-05-10T03:03:05.016Z,0.00
2018-05-10T03:04:56.801Z,0.00
2018-05-10T03:05:56.770Z,0.00
2018-05-10T03:07:48.509Z,0.00
2018-05-10T03:08:48.451Z,0.00
2018-05-10T03:10:40.215Z,0.00
2018-05-10T03:11:40.135Z,0.00
2018-05-10T03:13:31.908Z,0.00
2018-05-10T03:14:31.843Z,0.00
2018-05-10T03:16:23.647Z,0.00
2018-05-10T03:17:23.564Z,0.00
2018-05-10T03:19:15.368Z,0.00
2018-05-10T03:20:15.267Z,0.00
2018-05-10T03:22:07.021Z,0.00
2018-05-10T03:23:06.955Z,0.00
2018-05-10T03:24:58.759Z,0.00
2018-05-10T03:25:58.688Z,0.00
2018-05-10T03:27:50.478Z,0.00
2018-05-10T03:28:50.415Z,0.00
2018-05-10T03:30:42.212Z,0.00
2018-05-10T03:31:42.152Z,0.00
2018-05-10T03:33:33.928Z,0.00
2018-05-10T03:34:33.860Z,0.00
2018-05-10T03:36:25.661Z,0.00
2018-05-10T03:37:25.594Z,0.00
2018-05-10T03:39:17.379Z,0.00
2018-05-10T03:40:17.318Z,0.00
2018-05-10T03:42:09.112Z,0.00
2018-05-10T03:43:09.043Z,0.00
2018-05-10T03:45:00.811Z,0.00
2018-05-10T03:46:00.740Z,0.00
2018-05-10T03:47:52.493Z,0.00
2018-05-10T03:48:52.436Z,0.00
2018-05-10T03:50:44.210Z,0.00
2018-05-10T03:51:44.140Z,0.00
2018-05-10T03:53:35.905Z,0.00
2018-05-10T03:54:35.837Z,0.00
2018-05-10T03:56:27.617Z,0.00
2018-05-10T03:57:27.543Z,0.00
2018-05-10T03:59:19.294Z,0.00
2018-05-10T04:00:19.238Z,0.00
2018-05-10T04:02:11.037Z,0.00
2018-05-10T04:03:10.949Z,0.00
2018-05-10T04:05:02.757Z,0.00
2018-05-10T04:06:02.731Z,0.00
2018-05-10T04:07:54.434Z,0.00
2018-05-10T04:08:54.359Z,0.00
2018-05-10T04:10:46.174Z,0.00
2018-05-10T04:11:46.088Z,0.00
2018-05-10T04:13:37.876Z,0.00
2018-05-10T04:14:37.814Z,0.00
2018-05-10T04:16:29.614Z,0.00
2018-05-10T04:17:29.523Z,0.00
2018-05-10T04:19:21.295Z,0.00
2018-05-10T04:20:21.232Z,0.00
2018-05-10T04:22:13.002Z,0.00
2018-05-10T04:23:12.930Z,0.00
2018-05-10T04:25:04.736Z,0.00
2018-05-10T04:26:04.667Z,0.00
2018-05-10T04:27:56.488Z,0.00
2018-05-10T04:28:56.363Z,0.00
2018-05-10T04:30:48.145Z,0.00
2018-05-10T04:31:48.068Z,0.00
2018-05-10T04:33:39.845Z,0.00
2018-05-10T04:34:39.772Z,0.00
2018-05-10T04:36:31.541Z,0.00
2018-05-10T04:37:31.474Z,0.00
2018-05-10T04:39:23.244Z,0.00
2018-05-10T04:40:23.189Z,0.00
2018-05-10T04:42:15.082Z,0.00
2018-05-10T04:43:14.920Z,0.00
2018-05-10T04:45:06.710Z,1.25
2018-05-10T04:46:06.644Z,0.00
2018-05-10T04:47:58.440Z,4.22
2018-05-10T04:48:58.345Z,3.45
2018-05-10T04:50:50.145Z,1.73
2018-05-10T04:51:50.089Z,0.29
2018-05-10T04:53:41.818Z,0.19
2018-05-10T04:54:41.747Z,2.88
2018-05-10T04:56:33.512Z,3.26
2018-05-10T04:57:33.447Z,4.51
2018-05-10T04:59:25.242Z,14.02
2018-05-10T05:00:25.186Z,14.40
2018-05-10T05:02:16.940Z,13.25
2018-05-10T05:03:16.943Z,9.70
2018-05-10T05:05:08.719Z,4.03
2018-05-10T05:06:08.600Z,13.92
2018-05-10T05:08:00.408Z,11.23
2018-05-10T05:09:00.443Z,11.91
2018-05-10T05:10:52.159Z,10.28
2018-05-10T05:11:52.120Z,13.25
2018-05-10T05:13:43.878Z,15.18
2018-05-10T05:14:43.806Z,17.58
2018-05-10T05:16:35.582Z,19.89
2018-05-10T05:17:35.524Z,18.44
2018-05-10T05:19:27.316Z,15.66
2018-05-10T05:20:27.224Z,11.72
2018-05-10T05:22:19.005Z,20.56
2018-05-10T05:23:18.949Z,23.73
2018-05-10T05:25:10.722Z,23.73
2018-05-10T05:26:10.641Z,21.91
2018-05-10T05:28:02.431Z,21.33
2018-05-10T05:29:02.348Z,20.37
2018-05-10T05:30:54.107Z,25.36
2018-05-10T05:31:54.040Z,23.92
2018-05-10T05:33:45.826Z,24.88
2018-05-10T05:34:45.751Z,26.90
2018-05-10T05:36:37.539Z,25.07
2018-05-10T05:37:37.452Z,26.04
2018-05-10T05:39:29.247Z,27.76
2018-05-10T05:40:29.181Z,28.72
2018-05-10T05:42:20.979Z,27.67
2018-05-10T05:43:20.994Z,29.30
2018-05-10T05:45:12.791Z,28.55
2018-05-10T05:46:12.627Z,34.12
2018-05-10T05:48:04.398Z,27.09
2018-05-10T05:49:04.334Z,32.28
2018-05-10T05:50:56.102Z,33.45
2018-05-10T05:51:56.037Z,33.26
2018-05-10T05:53:47.806Z,36.15
2018-05-10T05:54:47.752Z,36.05
2018-05-10T05:56:39.544Z,36.82
2018-05-10T05:57:39.463Z,43.28
2018-05-10T05:59:31.280Z,40.58
2018-05-10T06:00:31.189Z,40.11
2018-05-10T06:02:22.968Z,37.60
2018-05-10T06:03:22.899Z,42.41
2018-05-10T06:05:14.693Z,37.22
2018-05-10T06:06:14.650Z,38.95
2018-05-10T06:08:06.386Z,41.93
2018-05-10T06:09:06.320Z,45.29
2018-05-10T06:10:58.112Z,44.05
2018-05-10T06:11:58.062Z,47.05
2018-05-10T06:13:49.865Z,45.29
2018-05-10T06:14:49.770Z,45.78
2018-05-10T06:16:41.537Z,47.24
2018-05-10T06:17:41.471Z,45.70
2018-05-10T06:19:33.262Z,47.44
2018-05-10T06:20:33.247Z,49.29
2018-05-10T06:22:24.957Z,52.49
2018-05-10T06:23:24.889Z,58.65
2018-05-10T06:25:16.756Z,62.12
2018-05-10T06:26:16.603Z,55.19
2018-05-10T06:28:08.401Z,56.41
2018-05-10T06:29:08.321Z,55.00
2018-05-10T06:31:00.109Z,58.27
2018-05-10T06:32:00.033Z,56.05
2018-05-10T06:33:51.802Z,55.57
2018-05-10T06:34:51.750Z,59.23
2018-05-10T06:36:43.548Z,57.72
2018-05-10T06:37:43.572Z,61.77
2018-05-10T06:39:35.251Z,66.55
2018-05-10T06:40:35.183Z,60.30
2018-05-10T06:42:26.962Z,54.13
2018-05-10T06:43:26.912Z,52.85
2018-05-10T06:45:18.700Z,54.20
2018-05-10T06:46:18.625Z,51.02
2018-05-10T06:48:10.422Z,54.58
2018-05-10T06:49:10.353Z,51.92
2018-05-10T06:51:02.137Z,53.45
2018-05-10T06:52:02.055Z,53.27
2018-05-10T06:53:53.836Z,53.74
2018-05-10T06:54:53.775Z,58.08
2018-05-10T06:56:45.589Z,48.23
2018-05-10T06:57:45.498Z,51.41
2018-05-10T06:59:37.348Z,50.83
2018-05-10T07:00:37.268Z,49.41
2018-05-10T07:02:29.045Z,50.54
2018-05-10T07:03:28.971Z,52.08
2018-05-10T07:05:20.766Z,56.05
2018-05-10T07:06:20.690Z,56.05
2018-05-10T07:08:12.455Z,58.17
2018-05-10T07:09:12.395Z,58.85
2018-05-10T07:11:04.179Z,55.96
2018-05-10T07:12:04.103Z,56.54
2018-05-10T07:13:55.865Z,58.56
2018-05-10T07:14:55.793Z,57.53
2018-05-10T07:16:47.607Z,60.45
2018-05-10T07:17:47.507Z,62.66
2018-05-10T07:19:39.290Z,65.27
2018-05-10T07:20:39.244Z,67.88
2018-05-10T07:22:31.033Z,62.86
2018-05-10T07:23:30.971Z,64.21
2018-05-10T07:25:22.885Z,63.82
2018-05-10T07:26:22.657Z,65.66
2018-05-10T07:28:14.442Z,69.32
2018-05-10T07:29:14.385Z,64.31
2018-05-10T07:31:06.161Z,69.61
2018-05-10T07:32:06.083Z,67.33
2018-05-10T07:33:57.843Z,71.77
2018-05-10T07:34:57.862Z,73.21
2018-05-10T07:36:49.554Z,68.52
2018-05-10T07:37:49.484Z,73.89
2018-05-10T07:39:41.249Z,72.73
2018-05-10T07:40:41.192Z,75.76
2018-05-10T07:42:32.976Z,76.47
2018-05-10T07:43:32.914Z,79.99
2018-05-10T07:45:24.711Z,87.91
2018-05-10T07:46:24.647Z,86.36
2018-05-10T07:48:16.460Z,90.85
2018-05-10T07:49:16.390Z,89.35
2018-05-10T07:51:08.186Z,94.67
2018-05-10T07:52:08.108Z,95.15
2018-05-10T07:53:59.880Z,99.99
2018-05-10T07:54:59.822Z,99.99
2018-05-10T07:56:51.631Z,99.99
2018-05-10T07:57:51.569Z,99.99
2018-05-10T07:59:43.334Z,97.76
2018-05-10T08:00:43.277Z,95.81
2018-05-10T08:02:35.083Z,94.98
2018-05-10T08:03:35.007Z,96.20
2018-05-10T08:05:26.784Z,98.25
2018-05-10T08:06:26.727Z,99.70
2018-05-10T08:08:18.533Z,98.30
2018-05-10T08:09:18.449Z,96.98
2018-05-10T08:11:10.250Z,98.25
2018-05-10T08:12:10.183Z,99.60
2018-05-10T08:14:01.944Z,99.36
2018-05-10T08:15:01.893Z,99.99
2018-05-10T08:16:53.777Z,98.30
2018-05-10T08:17:53.613Z,99.12
2018-05-10T08:19:45.414Z,99.99
2018-05-10T08:20:45.355Z,96.69
2018-05-10T08:22:37.140Z,94.06
2018-05-10T08:23:37.073Z,92.26
2018-05-10T08:25:28.864Z,84.59
2018-05-10T08:26:28.796Z,81.46
2018-05-10T08:28:20.606Z,71.41
2018-05-10T08:29:20.535Z,75.57
2018-05-10T08:31:12.311Z,77.62
2018-05-10T08:32:12.259Z,79.82
2018-05-10T08:34:04.045Z,79.53
2018-05-10T08:35:03.974Z,79.88
2018-05-10T08:36:55.796Z,81.24
2018-05-10T08:37:55.738Z,84.07
2018-05-10T08:39:47.506Z,84.94
2018-05-10T08:40:47.457Z,83.00
2018-05-10T08:42:39.231Z,86.42
2018-05-10T08:43:39.165Z,87.68
2018-05-10T08:45:30.929Z,90.81
2018-05-10T08:46:30.876Z,93.29
2018-05-10T08:48:22.670Z,92.46
2018-05-10T08:49:22.609Z,92.84
2018-05-10T08:51:14.379Z,91.67
2018-05-10T08:52:14.331Z,89.86
2018-05-10T08:54:06.120Z,84.29
2018-05-10T08:55:06.055Z,76.03
2018-05-10T08:56:57.846Z,67.25
2018-05-10T08:57:57.777Z,69.27
2018-05-10T08:59:49.543Z,69.24
2018-05-10T09:00:49.493Z,68.81
2018-05-10T09:02:41.293Z,68.71
2018-05-10T09:03:41.220Z,66.80
2018-05-10T09:05:33.000Z,62.70
2018-05-10T09:06:32.953Z,63.24
2018-05-10T09:08:24.740Z,52.32
2018-05-10T09:09:24.688Z,53.88
2018-05-10T09:11:16.458Z,52.93
2018-05-10T09:12:16.411Z,51.93
2018-05-10T09:14:08.233Z,54.06
2018-05-10T09:15:08.145Z,50.76
2018-05-10T09:16:59.951Z,49.80
2018-05-10T09:17:59.911Z,51.61
2018-05-10T09:19:51.695Z,58.04
2018-05-10T09:20:51.627Z,61.20
2018-05-10T09:22:43.451Z,57.38
2018-05-10T09:23:43.374Z,55.74
2018-05-10T09:25:35.161Z,49.36
2018-05-10T09:26:35.134Z,49.36
2018-05-10T09:28:26.932Z,50.24
2018-05-10T09:29:26.839Z,49.95
2018-05-10T09:31:18.623Z,51.61
2018-05-10T09:32:18.565Z,48.97
2018-05-10T09:34:10.359Z,48.02
2018-05-10T09:35:10.293Z,52.64
2018-05-10T09:37:02.079Z,52.27
2018-05-10T09:38:02.023Z,52.69
2018-05-10T09:39:53.821Z,50.27
2018-05-10T09:40:53.757Z,49.11
2018-05-10T09:42:45.558Z,51.83
2018-05-10T09:43:45.494Z,56.08
2018-05-10T09:45:37.298Z,52.64
2018-05-10T09:46:37.245Z,53.93
2018-05-10T09:48:29.048Z,56.57
2018-05-10T09:49:29.000Z,53.37
2018-05-10T09:51:20.768Z,51.59
2018-05-10T09:52:20.721Z,51.73
2018-05-10T09:54:12.543Z,60.45
2018-05-10T09:55:12.474Z,52.90
2018-05-10T09:57:04.274Z,48.93
2018-05-10T09:58:04.215Z,53.36
2018-05-10T09:59:56.056Z,53.53
2018-05-10T10:00:55.971Z,53.63
2018-05-10T10:02:47.817Z,60.33
2018-05-10T10:03:47.711Z,58.14
2018-05-10T10:05:39.519Z,53.88
2018-05-10T10:06:39.448Z,63.05
2018-05-10T10:08:31.291Z,59.41
2018-05-10T10:09:31.229Z,55.90
2018-05-10T10:11:23.004Z,53.75
2018-05-10T10:12:22.949Z,52.41
2018-05-10T10:14:14.769Z,49.39
2018-05-10T10:15:14.751Z,50.46
2018-05-10T10:17:06.513Z,50.07
2018-05-10T10:18:06.465Z,47.83
2018-05-10T10:19:58.266Z,49.61
2018-05-10T10:20:58.195Z,49.29
2018-05-10T10:22:49.990Z,53.63
2018-05-10T10:23:49.934Z,54.70
2018-05-10T10:25:41.740Z,52.09
2018-05-10T10:26:41.678Z,52.48
2018-05-10T10:28:33.469Z,51.51
2018-05-10T10:29:33.424Z,50.04
2018-05-10T10:31:25.233Z,53.34
2018-05-10T10:32:25.254Z,51.07
2018-05-10T10:34:16.989Z,57.65
2018-05-10T10:35:16.914Z,51.07
2018-05-10T10:37:08.703Z,56.72
2018-05-10T10:38:08.656Z,57.57
2018-05-10T10:40:00.511Z,59.26
2018-05-10T10:41:00.429Z,57.04
2018-05-10T10:42:52.212Z,57.04
2018-05-10T10:43:52.161Z,56.32
2018-05-10T10:45:43.964Z,49.95
2018-05-10T10:46:43.891Z,51.02
2018-05-10T10:48:35.684Z,52.26
2018-05-10T10:49:35.632Z,57.21
2018-05-10T10:51:27.443Z,52.31
2018-05-10T10:52:27.366Z,57.89
2018-05-10T10:54:19.178Z,54.41
2018-05-10T10:55:19.111Z,51.80
2018-05-10T10:57:10.898Z,50.82
2018-05-10T10:58:10.841Z,49.66
2018-05-10T11:00:02.708Z,48.78
2018-05-10T11:01:02.594Z,49.85
2018-05-10T11:02:54.389Z,53.38
2018-05-10T11:03:54.343Z,53.38
2018-05-10T11:05:46.137Z,52.80
2018-05-10T11:06:46.070Z,54.26
2018-05-10T11:08:37.854Z,56.54
2018-05-10T11:09:37.824Z,58.39
2018-05-10T11:11:29.605Z,58.20
2018-05-10T11:12:29.519Z,61.57
2018-05-10T11:14:21.620Z,62.81
2018-05-10T11:15:21.565Z,64.85
2018-05-10T11:17:13.357Z,65.63
2018-05-10T11:18:13.291Z,70.04
2018-05-10T11:20:05.081Z,66.14
2018-05-10T11:21:05.014Z,65.37
2018-05-10T11:22:56.801Z,65.66
2018-05-10T11:23:56.760Z,64.39
2018-05-10T11:25:48.623Z,65.66
2018-05-10T11:26:48.551Z,66.93
2018-05-10T11:28:40.276Z,65.85
2018-05-10T11:29:40.230Z,66.63
2018-05-10T11:31:32.059Z,66.14
2018-05-10T11:32:31.994Z,64.36
2018-05-10T11:34:23.819Z,69.65
2018-05-10T11:35:23.724Z,68.57
2018-05-10T11:37:15.513Z,67.25
2018-05-10T11:38:15.443Z,66.56
2018-05-10T11:40:07.256Z,63.94
2018-05-10T11:41:07.191Z,62.57
2018-05-10T11:42:58.968Z,66.47
2018-05-10T11:43:58.914Z,66.56
2018-05-10T11:45:50.746Z,67.02
2018-05-10T11:46:50.631Z,70.04
2018-05-10T11:48:42.455Z,68.48
2018-05-10T11:49:42.405Z,68.38
2018-05-10T11:51:34.128Z,68.22
2018-05-10T11:52:34.057Z,66.69
2018-05-10T11:54:25.831Z,66.89
2018-05-10T11:55:25.777Z,62.60
2018-05-10T11:57:17.685Z,62.38
2018-05-10T11:58:17.506Z,60.53
2018-05-10T12:00:09.279Z,65.69
2018-05-10T12:01:09.226Z,63.87
2018-05-10T12:03:01.013Z,64.45
2018-05-10T12:04:00.992Z,66.21
2018-05-10T12:05:52.731Z,62.12
2018-05-10T12:06:52.664Z,63.90
2018-05-10T12:08:44.477Z,70.23
2018-05-10T12:09:44.413Z,67.50
2018-05-10T12:11:36.217Z,68.71
2018-05-10T12:12:36.137Z,69.68
2018-05-10T12:14:28.010Z,70.01
2018-05-10T12:15:27.903Z,63.75
2018-05-10T12:17:19.723Z,63.75
2018-05-10T12:18:19.643Z,64.98
2018-05-10T12:20:11.425Z,65.95
2018-05-10T12:21:11.351Z,65.85
2018-05-10T12:23:03.164Z,64.62
2018-05-10T12:24:03.109Z,64.62
2018-05-10T12:25:54.909Z,65.33
2018-05-10T12:26:54.835Z,64.56
2018-05-10T12:28:46.624Z,67.86
2018-05-10T12:29:46.531Z,67.31
2018-05-10T12:31:38.337Z,69.38
2018-05-10T12:32:38.276Z,72.14
2018-05-10T12:34:30.060Z,68.25
2018-05-10T12:35:29.996Z,69.42
2018-05-10T12:37:21.878Z,70.10
2018-05-10T12:38:21.807Z,71.36
2018-05-10T12:40:13.737Z,69.42
2018-05-10T12:41:13.681Z,71.46
2018-05-10T12:43:05.704Z,68.35
2018-05-10T12:44:05.576Z,65.46
2018-05-10T12:45:57.390Z,62.84
2018-05-10T12:46:57.449Z,62.29
2018-05-10T12:48:49.133Z,60.53
2018-05-10T12:49:49.100Z,59.39
2018-05-10T12:51:40.950Z,55.57
2018-05-10T12:52:40.861Z,56.64
2018-05-10T12:54:32.737Z,61.11
2018-05-10T12:55:32.710Z,58.59
2018-05-10T12:57:24.579Z,56.45
2018-05-10T12:58:24.527Z,55.18
2018-05-10T13:00:16.452Z,55.08
2018-05-10T13:01:16.282Z,56.74
2018-05-10T13:03:08.153Z,56.05
2018-05-10T13:04:08.060Z,58.49
2018-05-10T13:05:59.908Z,58.20
2018-05-10T13:06:59.744Z,59.63
2018-05-10T13:08:51.545Z,57.49
2018-05-10T13:09:51.476Z,57.87
2018-05-10T13:11:43.288Z,56.51
2018-05-10T13:12:43.213Z,57.87
2018-05-10T13:14:35.028Z,56.61
2018-05-10T13:15:34.951Z,57.68
2018-05-10T13:17:26.731Z,58.75
2018-05-10T13:18:26.698Z,59.50
2018-05-10T13:20:18.457Z,59.14
2018-05-10T13:21:18.386Z,58.26
2018-05-10T13:23:10.205Z,60.08
2018-05-10T13:24:10.120Z,61.25
2018-05-10T13:26:01.906Z,59.21
2018-05-10T13:27:01.841Z,61.44
2018-05-10T13:28:53.730Z,57.65
2018-05-10T13:29:53.558Z,57.75
2018-05-10T13:31:45.321Z,58.33
2018-05-10T13:32:45.260Z,60.47
2018-05-10T13:34:37.061Z,62.87
2018-05-10T13:35:36.987Z,62.41
2018-05-10T13:37:28.782Z,62.58
2018-05-10T13:38:28.825Z,63.65
2018-05-10T13:40:20.487Z,64.69
2018-05-10T13:41:20.429Z,64.59
2018-05-10T13:43:12.222Z,65.30
2018-05-10T13:44:12.162Z,62.58
2018-05-10T13:46:03.938Z,62.48
2018-05-10T13:47:03.968Z,64.33
2018-05-10T13:48:55.673Z,64.53
2018-05-10T13:49:55.591Z,62.03
2018-05-10T13:51:47.375Z,61.64
2018-05-10T13:52:47.315Z,62.32
2018-05-10T13:54:39.129Z,60.50
2018-05-10T13:55:39.047Z,60.31
2018-05-10T13:57:30.834Z,60.79
2018-05-10T13:58:30.771Z,60.50
2018-05-10T14:00:22.546Z,60.60
2018-05-10T14:01:22.468Z,60.79
2018-05-10T14:03:14.260Z,59.11
2018-05-10T14:04:14.189Z,58.14
2018-05-10T14:06:06.031Z,57.43
2018-05-10T14:07:05.975Z,56.46
2018-05-10T14:08:57.815Z,58.23
2018-05-10T14:09:57.753Z,57.56
2018-05-10T14:11:49.603Z,58.07
2018-05-10T14:12:49.547Z,58.53
2018-05-10T14:14:41.366Z,55.93
2018-05-10T14:15:41.298Z,54.25
2018-05-10T14:17:33.053Z,57.04
2018-05-10T14:18:32.992Z,58.11
2018-05-10T14:20:24.787Z,54.93
2018-05-10T14:21:24.699Z,49.58
2018-05-10T14:23:16.491Z,51.45
2018-05-10T14:24:16.475Z,52.82
2018-05-10T14:26:08.192Z,51.19
2018-05-10T14:27:08.137Z,48.95
2018-05-10T14:28:59.959Z,43.99
2018-05-10T14:29:59.887Z,45.94
2018-05-10T14:31:51.669Z,69.68
2018-05-10T14:32:51.684Z,85.79
2018-05-10T14:34:43.429Z,98.29
2018-05-10T14:35:43.352Z,89.50
2018-05-10T14:37:35.132Z,96.35
2018-05-10T14:38:35.074Z,69.60
2018-05-10T14:40:26.882Z,65.14
2018-05-10T14:41:26.809Z,92.37
2018-05-10T14:43:18.640Z,60.22
2018-05-10T14:44:18.520Z,70.81
2018-05-10T14:46:10.316Z,50.53
2018-05-10T14:47:10.258Z,70.06
2018-05-10T14:49:02.060Z,51.99
2018-05-10T14:50:01.995Z,76.92
2018-05-10T14:51:53.799Z,59.54
2018-05-10T14:52:53.781Z,54.97
2018-05-10T14:54:45.485Z,54.88
2018-05-10T14:55:45.415Z,51.67
2018-05-10T14:57:37.202Z,63.04
2018-05-10T14:58:37.176Z,65.89
2018-05-10T15:00:29.469Z,51.21
2018-05-10T15:01:29.351Z,47.34
2018-05-10T15:03:21.207Z,49.58
2018-05-10T15:04:21.090Z,46.18
2018-05-10T15:06:12.994Z,48.34
2018-05-10T15:07:12.847Z,46.69
2018-05-10T15:09:04.606Z,48.34
2018-05-10T15:10:04.527Z,42.60
2018-05-10T15:11:56.352Z,43.29
2018-05-10T15:12:56.316Z,53.11
2018-05-10T15:14:48.203Z,48.32
2018-05-10T15:15:48.107Z,49.39
2018-05-10T15:17:39.854Z,43.85
2018-05-10T15:18:39.790Z,42.97
2018-05-10T15:20:31.647Z,55.03
2018-05-10T15:21:31.577Z,45.01
2018-05-10T15:23:23.365Z,53.08
2018-05-10T15:24:23.332Z,47.34
2018-05-10T15:26:15.106Z,46.77
2018-05-10T15:27:15.036Z,45.62
2018-05-10T15:29:06.864Z,46.28
2018-05-10T15:30:06.828Z,49.68
2018-05-10T15:31:58.574Z,46.84
2018-05-10T15:32:58.526Z,48.78
2018-05-10T15:34:50.307Z,46.74
2018-05-10T15:35:50.230Z,50.14
2018-05-10T15:37:42.012Z,46.84
2018-05-10T15:38:41.954Z,48.30
2018-05-10T15:40:33.764Z,48.51
2018-05-10T15:41:33.693Z,52.76
2018-05-10T15:43:25.467Z,46.18
2018-05-10T15:44:25.415Z,51.92
2018-05-10T15:46:17.196Z,49.46
2018-05-10T15:47:17.129Z,53.22
2018-05-10T15:49:09.081Z,49.34
2018-05-10T15:50:08.843Z,52.74
2018-05-10T15:52:00.645Z,47.78
2018-05-10T15:53:00.550Z,50.38
2018-05-10T15:54:52.333Z,54.97
2018-05-10T15:55:52.265Z,52.15
2018-05-10T15:57:44.067Z,51.65
2018-05-10T15:58:44.003Z,50.48
2018-05-10T16:00:35.780Z,53.20
2018-05-10T16:01:35.720Z,52.91
2018-05-10T16:03:27.501Z,52.62
2018-05-10T16:04:27.449Z,51.55
2018-05-10T16:06:19.249Z,55.33
2018-05-10T16:07:19.157Z,70.29
2018-05-10T16:09:10.938Z,99.99
2018-05-10T16:10:10.875Z,99.99
2018-05-10T16:12:02.661Z,67.02
2018-05-10T16:13:02.589Z,25.56
2018-05-10T16:14:54.382Z,32.23
2018-05-10T16:15:54.312Z,64.04
2018-05-10T16:17:46.064Z,67.33
2018-05-10T16:18:46.005Z,50.96
2018-05-10T16:20:37.799Z,66.82
2018-05-10T16:21:37.734Z,50.18
2018-05-10T16:23:29.531Z,52.41
2018-05-10T16:24:29.447Z,56.76
2018-05-10T16:26:21.297Z,53.83
2018-05-10T16:27:21.159Z,51.81
2018-05-10T16:29:12.975Z,67.75
2018-05-10T16:30:12.906Z,36.15
2018-05-10T16:32:04.704Z,69.10
2018-05-10T16:33:04.618Z,44.75
2018-05-10T16:34:56.406Z,61.08
2018-05-10T16:35:56.335Z,54.13
2018-05-10T16:37:48.144Z,42.52
2018-05-10T16:38:48.069Z,52.89
2018-05-10T16:40:39.949Z,61.40
2018-05-10T16:41:39.871Z,65.37
2018-05-10T16:43:31.648Z,69.04
2018-05-10T16:44:31.590Z,75.81
2018-05-10T16:46:23.378Z,86.06
2018-05-10T16:47:23.312Z,72.52
2018-05-10T16:49:15.081Z,74.94
2018-05-10T16:50:15.026Z,93.02
2018-05-10T16:52:06.815Z,83.26
2018-05-10T16:53:06.728Z,78.23
2018-05-10T16:54:58.493Z,84.71
2018-05-10T16:55:58.436Z,86.65
2018-05-10T16:57:50.228Z,95.15
2018-05-10T16:58:50.154Z,87.61
2018-05-10T17:00:42.036Z,78.66
2018-05-10T17:01:41.961Z,74.79
2018-05-10T17:03:33.727Z,89.97
2018-05-10T17:04:34.681Z,76.53
2018-05-10T17:06:25.433Z,96.70
2018-05-10T17:07:25.361Z,94.18
2018-05-10T17:09:17.162Z,94.76
2018-05-10T17:10:17.088Z,89.15
2018-05-10T17:12:08.913Z,95.34
2018-05-10T17:13:08.856Z,96.70
2018-05-10T17:15:00.608Z,99.80
2018-05-10T17:16:00.548Z,99.99
2018-05-10T17:17:52.318Z,96.75
2018-05-10T17:18:52.252Z,86.73
2018-05-10T17:20:44.048Z,96.70
2018-05-10T17:21:43.988Z,91.76
2018-05-10T17:23:35.792Z,94.23
2018-05-10T17:24:35.695Z,93.17
2018-05-10T17:26:27.483Z,90.07
2018-05-10T17:27:27.416Z,99.07
2018-05-10T17:29:19.652Z,99.99
2018-05-10T17:30:19.134Z,95.06
2018-05-10T17:32:10.932Z,94.67
2018-05-10T17:33:10.848Z,99.99
2018-05-10T17:35:02.617Z,59.44
2018-05-10T17:36:02.553Z,63.02
2018-05-10T17:37:54.367Z,89.26
2018-05-10T17:38:54.290Z,60.83
2018-05-10T17:40:46.056Z,32.73
2018-05-10T17:41:46.090Z,75.67
2018-05-10T17:43:37.783Z,60.61
2018-05-10T17:44:37.716Z,59.23
2018-05-10T17:46:29.527Z,35.40
2018-05-10T17:47:29.443Z,33.74
2018-05-10T17:49:21.217Z,41.55
2018-05-10T17:50:21.153Z,41.27
2018-05-10T17:52:12.954Z,36.23
2018-05-10T17:53:12.861Z,30.94
2018-05-10T17:55:04.646Z,43.65
2018-05-10T17:56:04.580Z,43.37
2018-05-10T17:57:56.368Z,34.90
2018-05-10T17:58:56.289Z,24.87
2018-05-10T18:00:48.078Z,24.20
2018-05-10T18:01:48.017Z,29.98
2018-05-10T18:03:39.806Z,33.94
2018-05-10T18:04:39.725Z,16.19
2018-05-10T18:06:31.510Z,9.93
2018-05-10T18:07:31.449Z,14.26
2018-05-10T18:09:23.228Z,33.55
2018-05-10T18:10:23.157Z,18.30
2018-05-10T18:12:14.943Z,13.68
2018-05-10T18:13:14.861Z,5.30
2018-05-10T18:15:06.674Z,12.81
2018-05-10T18:16:06.592Z,8.86
2018-05-10T18:17:58.367Z,48.88
2018-05-10T18:18:58.309Z,45.68
2018-05-10T18:20:50.076Z,44.15
2018-05-10T18:21:50.056Z,49.84
2018-05-10T18:23:41.800Z,30.56
2018-05-10T18:24:41.720Z,39.45
2018-05-10T18:26:33.490Z,42.35
2018-05-10T18:27:33.430Z,34.44
2018-05-10T18:29:25.213Z,32.01
2018-05-10T18:30:25.141Z,35.10
2018-05-10T18:32:16.943Z,29.60
2018-05-10T18:33:16.951Z,25.55
2018-05-10T18:35:08.635Z,35.28